Huvudsida
METAR-TAF:

METAR-TAF

Flygplatser :

Oljeplattform

Troll A, Norge

latitud: 60-38-42N, longitud: 3-43-29E, höjd: 20 m

Aktuellt väderrapport

Denna rapport gjordes för 37 minuter sedan, klockan 07:50 UTC
Vind 29 kt från väst/sydväst
Temperatur 4°C
Fuktighet 75%
Tryck 978 hPa
Sikt 10 km eller mer

METAR: ENQA 220750Z AUTO 25029KT 9999NDV SCT022/// BKN083/// BKN092/// 04/00 Q0978 W05/S6

Tid: 09:27 (08:27 UTC)


TAF: saknas

Aktuella väderrapporter och prognoser från 4000 flygplatser (METAR- och TAF-rapporter).

De tillgängliga stationerna syns som gula och röda prickar på kartan.

För musen över prickarna för att se namnen på stationerna.

Klicka sedan för att få väderrapporter och prognoser.

För att ändra kartan: Klicka på de gröna knapparna med ett svart kors på för att zooma in; den gröna knappen med ett streck på för att zooma ut; eller på de gröna pilarna för angränsande kartor.


METAR-TAF: